sensor_id;sensor_type;location;lat;lon;timestamp;pressure;altitude;pressure_sealevel;temperature;humidity
12486;BME280;6307;46.804;11.580;2023-02-03T00:02:25;-21001.13;;;4.96;100.00
12486;BME280;6307;46.804;11.580;2023-02-03T00:04:51;-21002.63;;;5.01;100.00
12486;BME280;6307;46.804;11.580;2023-02-03T00:07:17;-21000.06;;;4.93;100.00
12486;BME280;6307;46.804;11.580;2023-02-03T00:09:44;-21003.69;;;5.05;100.00
12486;BME280;6307;46.804;11.580;2023-02-03T00:12:10;-21005.03;;;5.09;100.00
12486;BME280;6307;46.804;11.580;2023-02-03T00:14:36;-21002.19;;;5.00;100.00
12486;BME280;6307;46.804;11.580;2023-02-03T00:17:02;-21000.38;;;4.94;100.00
12486;BME280;6307;46.804;11.580;2023-02-03T00:19:29;-20991.78;;;4.65;100.00
12486;BME280;6307;46.804;11.580;2023-02-03T00:21:55;-20999.31;;;4.90;100.00
12486;BME280;6307;46.804;11.580;2023-02-03T00:24:21;-20992.09;;;4.66;100.00
12486;BME280;6307;46.804;11.580;2023-02-03T00:26:48;-20995.56;;;4.78;100.00
12486;BME280;6307;46.804;11.580;2023-02-03T00:29:14;-20993.59;;;4.71;100.00
12486;BME280;6307;46.804;11.580;2023-02-03T00:31:42;-20994.97;;;4.76;100.00
12486;BME280;6307;46.804;11.580;2023-02-03T00:34:08;-20996.75;;;4.82;100.00
12486;BME280;6307;46.804;11.580;2023-02-03T00:36:35;-20991.66;;;4.65;100.00
12486;BME280;6307;46.804;11.580;2023-02-03T00:39:01;-20990.13;;;4.60;100.00
12486;BME280;6307;46.804;11.580;2023-02-03T00:41:29;-20994.34;;;4.74;100.00
12486;BME280;6307;46.804;11.580;2023-02-03T00:43:55;-20993.00;;;4.69;100.00
12486;BME280;6307;46.804;11.580;2023-02-03T00:46:21;-20986.81;;;4.49;100.00
12486;BME280;6307;46.804;11.580;2023-02-03T00:48:48;-20993.00;;;4.69;100.00
12486;BME280;6307;46.804;11.580;2023-02-03T00:51:14;-20994.66;;;4.75;100.00
12486;BME280;6307;46.804;11.580;2023-02-03T00:53:40;-20985.63;;;4.45;100.00
12486;BME280;6307;46.804;11.580;2023-02-03T00:56:06;-20988.94;;;4.56;100.00
12486;BME280;6307;46.804;11.580;2023-02-03T00:58:38;-20986.81;;;4.49;100.00
12486;BME280;6307;46.804;11.580;2023-02-03T01:01:05;-20991.34;;;4.64;100.00
12486;BME280;6307;46.804;11.580;2023-02-03T01:03:32;-20990.88;;;4.62;100.00
12486;BME280;6307;46.804;11.580;2023-02-03T01:06:18;-20986.53;;;4.48;100.00
12486;BME280;6307;46.804;11.580;2023-02-03T01:08:46;-20985.16;;;4.43;100.00
12486;BME280;6307;46.804;11.580;2023-02-03T01:11:19;-20984.56;;;4.41;100.00
12486;BME280;6307;46.804;11.580;2023-02-03T01:13:47;-20986.38;;;4.47;100.00
12486;BME280;6307;46.804;11.580;2023-02-03T01:16:16;-20987.56;;;4.51;100.00
12486;BME280;6307;46.804;11.580;2023-02-03T01:18:45;-20983.81;;;4.39;100.00
12486;BME280;6307;46.804;11.580;2023-02-03T01:21:17;-20980.66;;;4.28;100.00
12486;BME280;6307;46.804;11.580;2023-02-03T01:23:45;-20985.78;;;4.45;100.00
12486;BME280;6307;46.804;11.580;2023-02-03T01:26:16;-20980.81;;;4.29;100.00
12486;BME280;6307;46.804;11.580;2023-02-03T01:28:54;-20978.84;;;4.22;100.00
12486;BME280;6307;46.804;11.580;2023-02-03T01:31:28;-20975.97;;;4.13;100.00
12486;BME280;6307;46.804;11.580;2023-02-03T01:34:02;-20980.50;;;4.28;100.00
12486;BME280;6307;46.804;11.580;2023-02-03T01:36:30;-20975.97;;;4.13;100.00
12486;BME280;6307;46.804;11.580;2023-02-03T01:38:57;-20979.75;;;4.25;100.00
12486;BME280;6307;46.804;11.580;2023-02-03T01:41:35;-20979.28;;;4.24;100.00
12486;BME280;6307;46.804;11.580;2023-02-03T01:44:33;-20984.72;;;4.42;100.00
12486;BME280;6307;46.804;11.580;2023-02-03T01:50:22;-20983.06;;;4.36;100.00
12486;BME280;6307;46.804;11.580;2023-02-03T01:52:56;-20978.09;;;4.20;100.00
12486;BME280;6307;46.804;11.580;2023-02-03T01:55:37;-20980.66;;;4.28;100.00
12486;BME280;6307;46.804;11.580;2023-02-03T01:58:20;-20976.13;;;4.13;100.00
12486;BME280;6307;46.804;11.580;2023-02-03T02:00:51;-20979.59;;;4.25;100.00
12486;BME280;6307;46.804;11.580;2023-02-03T02:03:21;-20982.00;;;4.33;100.00
12486;BME280;6307;46.804;11.580;2023-02-03T02:06:06;-20965.59;;;3.78;100.00
12486;BME280;6307;46.804;11.580;2023-02-03T02:08:35;-20974.31;;;4.07;100.00
12486;BME280;6307;46.804;11.580;2023-02-03T02:11:03;-20973.56;;;4.05;100.00
12486;BME280;6307;46.804;11.580;2023-02-03T02:13:32;-20968.59;;;3.88;100.00
12486;BME280;6307;46.804;11.580;2023-02-03T02:21:23;-20972.50;;;4.01;100.00
12486;BME280;6307;46.804;11.580;2023-02-03T02:34:35;-20967.69;;;3.85;100.00
12486;BME280;6307;46.804;11.580;2023-02-03T02:43:05;-20965.28;;;3.77;100.00
12486;BME280;6307;46.804;11.580;2023-02-03T02:45:53;-20956.09;;;3.47;100.00
12486;BME280;6307;46.804;11.580;2023-02-03T02:48:31;-20959.56;;;3.58;100.00
12486;BME280;6307;46.804;11.580;2023-02-03T02:51:04;-20951.56;;;3.32;100.00
12486;BME280;6307;46.804;11.580;2023-02-03T02:53:39;-20958.34;;;3.54;100.00
12486;BME280;6307;46.804;11.580;2023-02-03T02:56:13;-20955.63;;;3.45;100.00
12486;BME280;6307;46.804;11.580;2023-02-03T02:58:44;-20961.97;;;3.66;100.00
12486;BME280;6307;46.804;11.580;2023-02-03T03:01:13;-20963.94;;;3.73;100.00
12486;BME280;6307;46.804;11.580;2023-02-03T03:03:40;-20958.94;;;3.56;100.00
12486;BME280;6307;46.804;11.580;2023-02-03T03:06:14;-20957.16;;;3.50;100.00
12486;BME280;6307;46.804;11.580;2023-02-03T03:08:57;-20956.69;;;3.49;100.00
12486;BME280;6307;46.804;11.580;2023-02-03T03:11:32;-20961.50;;;3.65;100.00
12486;BME280;6307;46.804;11.580;2023-02-03T03:14:08;-20966.78;;;3.82;100.00
12486;BME280;6307;46.804;11.580;2023-02-03T03:16:38;-20957.91;;;3.53;100.00
12486;BME280;6307;46.804;11.580;2023-02-03T03:19:14;-20958.81;;;3.56;100.00
12486;BME280;6307;46.804;11.580;2023-02-03T03:21:49;-20953.97;;;3.40;100.00
12486;BME280;6307;46.804;11.580;2023-02-03T03:24:30;-20960.47;;;3.61;100.00
12486;BME280;6307;46.804;11.580;2023-02-03T03:27:13;-20956.09;;;3.47;100.00
12486;BME280;6307;46.804;11.580;2023-02-03T03:29:51;-20947.03;;;3.17;100.00
12486;BME280;6307;46.804;11.580;2023-02-03T03:32:20;-20956.53;;;3.48;100.00
12486;BME280;6307;46.804;11.580;2023-02-03T03:34:47;-20957.59;;;3.52;100.00
12486;BME280;6307;46.804;11.580;2023-02-03T03:37:49;-20956.09;;;3.47;100.00
12486;BME280;6307;46.804;11.580;2023-02-03T03:40:35;-20955.47;;;3.45;100.00
12486;BME280;6307;46.804;11.580;2023-02-03T03:43:18;-20960.00;;;3.60;100.00
12486;BME280;6307;46.804;11.580;2023-02-03T03:48:27;-20962.72;;;3.69;100.00
12486;BME280;6307;46.804;11.580;2023-02-03T03:51:15;-20968.59;;;3.88;100.00
12486;BME280;6307;46.804;11.580;2023-02-03T03:53:46;-20960.59;;;3.62;100.00
12486;BME280;6307;46.804;11.580;2023-02-03T03:56:19;-20964.97;;;3.76;100.00
12486;BME280;6307;46.804;11.580;2023-02-03T03:58:53;-20961.22;;;3.64;100.00
12486;BME280;6307;46.804;11.580;2023-02-03T04:01:22;-20968.28;;;3.87;100.00
12486;BME280;6307;46.804;11.580;2023-02-03T04:03:52;-20964.22;;;3.74;100.00
12486;BME280;6307;46.804;11.580;2023-02-03T04:06:22;-20959.25;;;3.57;100.00
12486;BME280;6307;46.804;11.580;2023-02-03T04:08:48;-20968.59;;;3.88;100.00
12486;BME280;6307;46.804;11.580;2023-02-03T04:11:14;-20958.50;;;3.55;100.00
12486;BME280;6307;46.804;11.580;2023-02-03T04:14:00;-20964.97;;;3.76;100.00
12486;BME280;6307;46.804;11.580;2023-02-03T04:16:27;-20962.13;;;3.67;100.00
12486;BME280;6307;46.804;11.580;2023-02-03T04:18:53;-20968.16;;;3.87;100.00
12486;BME280;6307;46.804;11.580;2023-02-03T04:21:19;-20964.22;;;3.74;100.00
12486;BME280;6307;46.804;11.580;2023-02-03T04:23:46;-20961.22;;;3.64;100.00
12486;BME280;6307;46.804;11.580;2023-02-03T04:26:12;-20963.94;;;3.73;100.00
12486;BME280;6307;46.804;11.580;2023-02-03T04:28:38;-20961.66;;;3.65;100.00
12486;BME280;6307;46.804;11.580;2023-02-03T04:31:04;-20959.84;;;3.59;100.00
12486;BME280;6307;46.804;11.580;2023-02-03T04:33:30;-20965.72;;;3.79;100.00
12486;BME280;6307;46.804;11.580;2023-02-03T04:35:56;-20961.22;;;3.64;100.00
12486;BME280;6307;46.804;11.580;2023-02-03T04:38:22;-20963.78;;;3.72;100.00
12486;BME280;6307;46.804;11.580;2023-02-03T04:40:48;-20964.06;;;3.73;100.00
12486;BME280;6307;46.804;11.580;2023-02-03T04:43:15;-20965.59;;;3.78;100.00
12486;BME280;6307;46.804;11.580;2023-02-03T04:45:41;-20969.78;;;3.92;100.00
12486;BME280;6307;46.804;11.580;2023-02-03T04:48:07;-20964.22;;;3.74;100.00
12486;BME280;6307;46.804;11.580;2023-02-03T04:50:33;-20975.06;;;4.10;100.00
12486;BME280;6307;46.804;11.580;2023-02-03T04:53:00;-20976.59;;;4.15;100.00
12486;BME280;6307;46.804;11.580;2023-02-03T04:55:27;-20973.25;;;4.04;100.00
12486;BME280;6307;46.804;11.580;2023-02-03T04:57:57;-20976.44;;;4.14;100.00
12486;BME280;6307;46.804;11.580;2023-02-03T05:00:25;-20975.97;;;4.13;100.00
12486;BME280;6307;46.804;11.580;2023-02-03T05:02:52;-20974.16;;;4.07;100.00
12486;BME280;6307;46.804;11.580;2023-02-03T05:05:19;-20979.28;;;4.24;100.00
12486;BME280;6307;46.804;11.580;2023-02-03T05:07:45;-20974.31;;;4.07;100.00
12486;BME280;6307;46.804;11.580;2023-02-03T05:10:12;-20974.63;;;4.08;100.00
12486;BME280;6307;46.804;11.580;2023-02-03T05:12:38;-20976.28;;;4.14;100.00
12486;BME280;6307;46.804;11.580;2023-02-03T05:15:04;-20974.03;;;4.06;100.00
12486;BME280;6307;46.804;11.580;2023-02-03T05:17:31;-20977.34;;;4.17;100.00
12486;BME280;6307;46.804;11.580;2023-02-03T05:20:03;-20980.19;;;4.27;100.00
12486;BME280;6307;46.804;11.580;2023-02-03T05:22:30;-20980.94;;;4.29;100.00
12486;BME280;6307;46.804;11.580;2023-02-03T05:24:56;-20983.34;;;4.37;100.00
12486;BME280;6307;46.804;11.580;2023-02-03T05:27:22;-20982.75;;;4.35;100.00
12486;BME280;6307;46.804;11.580;2023-02-03T05:29:48;-20983.06;;;4.36;100.00
12486;BME280;6307;46.804;11.580;2023-02-03T05:32:14;-20979.00;;;4.23;100.00
12486;BME280;6307;46.804;11.580;2023-02-03T05:34:40;-20986.22;;;4.47;100.00
12486;BME280;6307;46.804;11.580;2023-02-03T05:37:07;-20985.91;;;4.46;100.00
12486;BME280;6307;46.804;11.580;2023-02-03T05:39:33;-20990.59;;;4.61;100.00
12486;BME280;6307;46.804;11.580;2023-02-03T05:41:59;-20991.19;;;4.63;100.00
12486;BME280;6307;46.804;11.580;2023-02-03T05:44:27;-20991.34;;;4.64;100.00
12486;BME280;6307;46.804;11.580;2023-02-03T05:46:55;-20994.06;;;4.73;100.00
12486;BME280;6307;46.804;11.580;2023-02-03T05:49:23;-20994.34;;;4.74;100.00
12486;BME280;6307;46.804;11.580;2023-02-03T06:00:13;-20988.03;;;4.53;100.00
12486;BME280;6307;46.804;11.580;2023-02-03T06:02:40;-20993.91;;;4.72;100.00
12486;BME280;6307;46.804;11.580;2023-02-03T06:05:07;-20990.75;;;4.62;100.00
12486;BME280;6307;46.804;11.580;2023-02-03T06:07:33;-20989.09;;;4.56;100.00
12486;BME280;6307;46.804;11.580;2023-02-03T06:09:59;-20989.84;;;4.59;100.00
12486;BME280;6307;46.804;11.580;2023-02-03T06:12:25;-20986.38;;;4.47;100.00
12486;BME280;6307;46.804;11.580;2023-02-03T06:14:51;-20985.31;;;4.44;100.00
12486;BME280;6307;46.804;11.580;2023-02-03T06:17:18;-20975.81;;;4.12;100.00
12486;BME280;6307;46.804;11.580;2023-02-03T06:19:44;-20981.09;;;4.30;100.00
12486;BME280;6307;46.804;11.580;2023-02-03T06:22:10;-20979.13;;;4.23;100.00
12486;BME280;6307;46.804;11.580;2023-02-03T06:24:36;-20978.84;;;4.22;100.00
12486;BME280;6307;46.804;11.580;2023-02-03T06:27:02;-20983.81;;;4.39;100.00
12486;BME280;6307;46.804;11.580;2023-02-03T06:29:28;-20978.38;;;4.21;100.00
12486;BME280;6307;46.804;11.580;2023-02-03T06:31:55;-20986.38;;;4.47;100.00
12486;BME280;6307;46.804;11.580;2023-02-03T06:34:21;-20983.97;;;4.39;100.00
12486;BME280;6307;46.804;11.580;2023-02-03T06:36:47;-20975.97;;;4.13;100.00
12486;BME280;6307;46.804;11.580;2023-02-03T06:39:14;-20980.19;;;4.27;100.00
12486;BME280;6307;46.804;11.580;2023-02-03T06:41:40;-20983.66;;;4.38;100.00
12486;BME280;6307;46.804;11.580;2023-02-03T06:44:06;-20980.19;;;4.27;100.00
12486;BME280;6307;46.804;11.580;2023-02-03T06:46:32;-20981.69;;;4.32;100.00
12486;BME280;6307;46.804;11.580;2023-02-03T06:48:59;-20983.81;;;4.39;100.00
12486;BME280;6307;46.804;11.580;2023-02-03T06:51:25;-20979.91;;;4.26;100.00
12486;BME280;6307;46.804;11.580;2023-02-03T06:53:51;-20983.34;;;4.37;100.00
12486;BME280;6307;46.804;11.580;2023-02-03T06:56:17;-20982.91;;;4.36;100.00
12486;BME280;6307;46.804;11.580;2023-02-03T06:58:43;-20979.00;;;4.23;100.00
12486;BME280;6307;46.804;11.580;2023-02-03T07:01:09;-20981.09;;;4.30;100.00
12486;BME280;6307;46.804;11.580;2023-02-03T07:03:36;-20978.69;;;4.22;100.00
12486;BME280;6307;46.804;11.580;2023-02-03T07:06:02;-20978.84;;;4.22;100.00
12486;BME280;6307;46.804;11.580;2023-02-03T07:08:28;-20986.81;;;4.49;100.00
12486;BME280;6307;46.804;11.580;2023-02-03T07:10:54;-20981.69;;;4.32;100.00
12486;BME280;6307;46.804;11.580;2023-02-03T07:13:20;-20986.81;;;4.49;100.00
12486;BME280;6307;46.804;11.580;2023-02-03T07:15:46;-20988.94;;;4.56;100.00
12486;BME280;6307;46.804;11.580;2023-02-03T07:18:12;-20995.84;;;4.79;100.00
12486;BME280;6307;46.804;11.580;2023-02-03T07:20:39;-20994.06;;;4.73;100.00
12486;BME280;6307;46.804;11.580;2023-02-03T07:23:05;-20995.41;;;4.77;100.00
12486;BME280;6307;46.804;11.580;2023-02-03T07:25:32;-21000.38;;;4.94;100.00
12486;BME280;6307;46.804;11.580;2023-02-03T07:27:58;-21003.84;;;5.05;100.00
12486;BME280;6307;46.804;11.580;2023-02-03T07:30:25;-21005.03;;;5.09;100.00
12486;BME280;6307;46.804;11.580;2023-02-03T07:32:52;-21007.91;;;5.19;99.23
12486;BME280;6307;46.804;11.580;2023-02-03T07:35:19;-21007.16;;;5.16;96.44
12486;BME280;6307;46.804;11.580;2023-02-03T07:37:45;-21011.81;;;5.32;95.64
12486;BME280;6307;46.804;11.580;2023-02-03T07:40:12;-21012.72;;;5.35;95.08
12486;BME280;6307;46.804;11.580;2023-02-03T07:42:41;-21023.84;;;5.72;84.75
12486;BME280;6307;46.804;11.580;2023-02-03T07:45:09;-21016.94;;;5.49;90.45
12486;BME280;6307;46.804;11.580;2023-02-03T07:47:36;-21022.19;;;5.66;85.89
12486;BME280;6307;46.804;11.580;2023-02-03T07:50:03;-21024.91;;;5.75;87.57
12486;BME280;6307;46.804;11.580;2023-02-03T07:52:30;-21031.25;;;5.96;82.53
12486;BME280;6307;46.804;11.580;2023-02-03T07:54:56;-21035.31;;;6.10;82.07
12486;BME280;6307;46.804;11.580;2023-02-03T07:57:22;-21028.97;;;5.89;87.50
12486;BME280;6307;46.804;11.580;2023-02-03T07:59:48;-21030.03;;;5.92;91.32
12486;BME280;6307;46.804;11.580;2023-02-03T08:02:14;-21024.47;;;5.74;90.57
12486;BME280;6307;46.804;11.580;2023-02-03T08:04:40;-21033.19;;;6.03;89.89
12486;BME280;6307;46.804;11.580;2023-02-03T08:07:06;-21025.97;;;5.79;90.83
12486;BME280;6307;46.804;11.580;2023-02-03T08:09:35;-21031.38;;;5.97;85.10
12486;BME280;6307;46.804;11.580;2023-02-03T08:12:02;-21024.91;;;5.75;89.33
12486;BME280;6307;46.804;11.580;2023-02-03T08:14:28;-21029.44;;;5.90;89.58
12486;BME280;6307;46.804;11.580;2023-02-03T08:16:55;-21025.38;;;5.77;89.22
12486;BME280;6307;46.804;11.580;2023-02-03T08:19:21;-21027.94;;;5.85;90.25
12486;BME280;6307;46.804;11.580;2023-02-03T08:21:48;-21035.44;;;6.10;85.87
12486;BME280;6307;46.804;11.580;2023-02-03T08:24:14;-21031.84;;;5.98;86.55
12486;BME280;6307;46.804;11.580;2023-02-03T08:26:40;-21030.94;;;5.95;84.64
12486;BME280;6307;46.804;11.580;2023-02-03T08:29:06;-21035.16;;;6.09;83.71
12486;BME280;6307;46.804;11.580;2023-02-03T08:31:32;-21043.28;;;6.36;86.38
12486;BME280;6307;46.804;11.580;2023-02-03T08:33:58;-21048.25;;;6.53;80.35
12486;BME280;6307;46.804;11.580;2023-02-03T08:36:24;-21047.34;;;6.50;81.72
12486;BME280;6307;46.804;11.580;2023-02-03T08:38:50;-21042.38;;;6.33;84.26
12486;BME280;6307;46.804;11.580;2023-02-03T08:41:17;-21037.72;;;6.18;84.50
12486;BME280;6307;46.804;11.580;2023-02-03T08:43:44;-21043.44;;;6.37;87.90
12486;BME280;6307;46.804;11.580;2023-02-03T08:46:11;-21045.53;;;6.44;86.85
12486;BME280;6307;46.804;11.580;2023-02-03T08:48:38;-21036.19;;;6.13;88.11
12486;BME280;6307;46.804;11.580;2023-02-03T08:51:12;-21039.06;;;6.22;86.39
12486;BME280;6307;46.804;11.580;2023-02-03T08:53:39;-21035.16;;;6.09;85.21
12486;BME280;6307;46.804;11.580;2023-02-03T08:56:07;-21045.22;;;6.43;79.77
12486;BME280;6307;46.804;11.580;2023-02-03T08:58:35;-21046.72;;;6.48;80.78
12486;BME280;6307;46.804;11.580;2023-02-03T09:01:09;-21055.75;;;6.78;74.98
12486;BME280;6307;46.804;11.580;2023-02-03T09:03:38;-21060.13;;;6.92;78.27
12486;BME280;6307;46.804;11.580;2023-02-03T09:06:05;-21057.41;;;6.83;74.27
12486;BME280;6307;46.804;11.580;2023-02-03T09:08:33;-21055.31;;;6.76;80.41
12486;BME280;6307;46.804;11.580;2023-02-03T09:10:59;-21067.63;;;7.17;76.35
12486;BME280;6307;46.804;11.580;2023-02-03T09:13:25;-21063.13;;;7.02;77.60
12486;BME280;6307;46.804;11.580;2023-02-03T09:15:51;-21064.78;;;7.08;76.98
12486;BME280;6307;46.804;11.580;2023-02-03T09:18:17;-21073.94;;;7.38;67.82
12486;BME280;6307;46.804;11.580;2023-02-03T09:20:44;-21082.81;;;7.67;64.93
12486;BME280;6307;46.804;11.580;2023-02-03T09:23:10;-21092.28;;;7.99;61.00
12486;BME280;6307;46.804;11.580;2023-02-03T09:25:36;-21095.13;;;8.08;60.20
12486;BME280;6307;46.804;11.580;2023-02-03T09:28:02;-21102.50;;;8.33;60.10
12486;BME280;6307;46.804;11.580;2023-02-03T09:30:29;-21102.50;;;8.33;55.37
12486;BME280;6307;46.804;11.580;2023-02-03T09:32:55;-21110.00;;;8.58;56.32
12486;BME280;6307;46.804;11.580;2023-02-03T09:35:23;-21113.16;;;8.68;58.98
12486;BME280;6307;46.804;11.580;2023-02-03T09:37:51;-21095.00;;;8.08;52.21
12486;BME280;6307;46.804;11.580;2023-02-03T09:40:24;-21112.41;;;8.66;55.45
12486;BME280;6307;46.804;11.580;2023-02-03T09:43:03;-21108.34;;;8.52;52.28
12486;BME280;6307;46.804;11.580;2023-02-03T09:45:38;-21107.31;;;8.49;50.54
12486;BME280;6307;46.804;11.580;2023-02-03T09:48:10;-21115.41;;;8.76;51.22
12486;BME280;6307;46.804;11.580;2023-02-03T09:50:42;-21110.31;;;8.59;50.96
12486;BME280;6307;46.804;11.580;2023-02-03T09:53:34;-21106.72;;;8.47;47.00
12486;BME280;6307;46.804;11.580;2023-02-03T09:56:19;-21118.88;;;8.87;48.25
12486;BME280;6307;46.804;11.580;2023-02-03T09:58:54;-21117.06;;;8.81;48.33
12486;BME280;6307;46.804;11.580;2023-02-03T10:01:21;-21117.81;;;8.84;47.04
12486;BME280;6307;46.804;11.580;2023-02-03T10:04:31;-21120.53;;;8.93;47.89
12486;BME280;6307;46.804;11.580;2023-02-03T10:10:21;-21129.97;;;9.24;46.46
12486;BME280;6307;46.804;11.580;2023-02-03T10:19:02;-21128.47;;;9.19;45.30
12486;BME280;6307;46.804;11.580;2023-02-03T10:21:42;-21131.47;;;9.29;45.97
12486;BME280;6307;46.804;11.580;2023-02-03T10:24:27;-21126.53;;;9.13;44.36
12486;BME280;6307;46.804;11.580;2023-02-03T10:27:01;-21130.44;;;9.26;45.79
12486;BME280;6307;46.804;11.580;2023-02-03T10:29:31;-21136.00;;;9.44;46.22
12486;BME280;6307;46.804;11.580;2023-02-03T10:32:08;-21127.28;;;9.15;47.54
12486;BME280;6307;46.804;11.580;2023-02-03T10:34:38;-21133.28;;;9.35;46.14
12486;BME280;6307;46.804;11.580;2023-02-03T10:37:42;-21124.88;;;9.07;46.27
12486;BME280;6307;46.804;11.580;2023-02-03T10:40:14;-21121.88;;;8.97;45.15
12486;BME280;6307;46.804;11.580;2023-02-03T10:42:46;-21131.78;;;9.30;43.96
12486;BME280;6307;46.804;11.580;2023-02-03T10:45:36;-21145.13;;;9.75;44.03
12486;BME280;6307;46.804;11.580;2023-02-03T10:48:04;-21143.50;;;9.69;44.05
12486;BME280;6307;46.804;11.580;2023-02-03T10:50:37;-21142.59;;;9.66;42.76
12486;BME280;6307;46.804;11.580;2023-02-03T10:53:32;-21149.19;;;9.88;42.89
12486;BME280;6307;46.804;11.580;2023-02-03T10:56:28;-21156.84;;;10.14;42.92
12486;BME280;6307;46.804;11.580;2023-02-03T10:58:59;-21162.41;;;10.32;43.16
12486;BME280;6307;46.804;11.580;2023-02-03T11:01:44;-21160.91;;;10.27;42.29
12486;BME280;6307;46.804;11.580;2023-02-03T11:04:39;-21150.69;;;9.93;41.35
12486;BME280;6307;46.804;11.580;2023-02-03T11:07:08;-21165.53;;;10.43;43.13
12486;BME280;6307;46.804;11.580;2023-02-03T11:09:49;-21164.50;;;10.39;42.69
12486;BME280;6307;46.804;11.580;2023-02-03T11:12:18;-21164.19;;;10.38;42.38
12486;BME280;6307;46.804;11.580;2023-02-03T11:14:47;-21168.09;;;10.51;42.76
12486;BME280;6307;46.804;11.580;2023-02-03T11:17:24;-21170.50;;;10.59;41.62
12486;BME280;6307;46.804;11.580;2023-02-03T11:20:14;-21176.63;;;10.80;40.35
12486;BME280;6307;46.804;11.580;2023-02-03T11:22:43;-21173.34;;;10.69;39.57
12486;BME280;6307;46.804;11.580;2023-02-03T11:25:36;-21176.19;;;10.78;40.88
12486;BME280;6307;46.804;11.580;2023-02-03T11:28:04;-21180.25;;;10.92;42.21
12486;BME280;6307;46.804;11.580;2023-02-03T11:30:32;-21182.78;;;11.00;41.08
12486;BME280;6307;46.804;11.580;2023-02-03T11:33:01;-21176.34;;;10.79;40.82
12486;BME280;6307;46.804;11.580;2023-02-03T11:35:56;-21178.88;;;10.87;39.61
12486;BME280;6307;46.804;11.580;2023-02-03T11:38:29;-21186.69;;;11.13;38.94
12486;BME280;6307;46.804;11.580;2023-02-03T11:41:00;-21192.22;;;11.32;38.55
12486;BME280;6307;46.804;11.580;2023-02-03T11:43:27;-21191.19;;;11.28;40.49
12486;BME280;6307;46.804;11.580;2023-02-03T11:46:00;-21195.06;;;11.41;40.17
12486;BME280;6307;46.804;11.580;2023-02-03T11:48:36;-21195.06;;;11.41;39.00
12486;BME280;6307;46.804;11.580;2023-02-03T11:53:56;-21209.75;;;11.90;37.29
12486;BME280;6307;46.804;11.580;2023-02-03T12:12:20;-21194.63;;;11.40;36.77
12486;BME280;6307;46.804;11.580;2023-02-03T12:20:59;-21220.09;;;12.25;37.12
12486;BME280;6307;46.804;11.580;2023-02-03T12:24:18;-21215.59;;;12.10;36.70
12486;BME280;6307;46.804;11.580;2023-02-03T12:27:08;-21222.19;;;12.32;36.07
12486;BME280;6307;46.804;11.580;2023-02-03T12:30:00;-21225.50;;;12.43;36.96
12486;BME280;6307;46.804;11.580;2023-02-03T12:32:39;-21212.91;;;12.01;35.74
12486;BME280;6307;46.804;11.580;2023-02-03T12:35:31;-21230.13;;;12.58;36.72
12486;BME280;6307;46.804;11.580;2023-02-03T12:38:15;-21234.63;;;12.73;36.66
12486;BME280;6307;46.804;11.580;2023-02-03T12:40:55;-21222.34;;;12.32;35.24
12486;BME280;6307;46.804;11.580;2023-02-03T12:43:36;-21240.00;;;12.91;36.45
12486;BME280;6307;46.804;11.580;2023-02-03T12:46:22;-21240.31;;;12.92;36.19
12486;BME280;6307;46.804;11.580;2023-02-03T12:52:15;-21240.91;;;12.94;36.68
12486;BME280;6307;46.804;11.580;2023-02-03T12:55:35;-21238.22;;;12.85;35.67
12486;BME280;6307;46.804;11.580;2023-02-03T13:03:41;-21229.22;;;12.55;34.30
12486;BME280;6307;46.804;11.580;2023-02-03T13:06:31;-21235.81;;;12.77;35.79
12486;BME280;6307;46.804;11.580;2023-02-03T13:12:00;-21240.16;;;12.92;35.12
12486;BME280;6307;46.804;11.580;2023-02-03T13:14:47;-21245.09;;;13.08;35.35
12486;BME280;6307;46.804;11.580;2023-02-03T13:17:26;-21233.44;;;12.69;35.45
12486;BME280;6307;46.804;11.580;2023-02-03T13:20:21;-21246.31;;;13.12;34.84
12486;BME280;6307;46.804;11.580;2023-02-03T13:22:50;-21229.09;;;12.55;33.49
12486;BME280;6307;46.804;11.580;2023-02-03T13:25:26;-21243.91;;;13.04;34.63
12486;BME280;6307;46.804;11.580;2023-02-03T13:31:57;-21241.97;;;12.98;34.95
12486;BME280;6307;46.804;11.580;2023-02-03T13:35:08;-21240.31;;;12.92;35.52
12486;BME280;6307;46.804;11.580;2023-02-03T13:41:10;-21239.25;;;12.89;36.48
12486;BME280;6307;46.804;11.580;2023-02-03T13:43:49;-21240.47;;;12.93;35.56
12486;BME280;6307;46.804;11.580;2023-02-03T13:46:24;-21241.38;;;12.96;35.87
12486;BME280;6307;46.804;11.580;2023-02-03T13:49:02;-21239.84;;;12.91;36.73
12486;BME280;6307;46.804;11.580;2023-02-03T13:51:33;-21239.25;;;12.89;36.08
12486;BME280;6307;46.804;11.580;2023-02-03T13:54:13;-21237.16;;;12.82;35.42
12486;BME280;6307;46.804;11.580;2023-02-03T13:56:56;-21234.03;;;12.71;37.17
12486;BME280;6307;46.804;11.580;2023-02-03T13:59:41;-21222.78;;;12.34;37.19
12486;BME280;6307;46.804;11.580;2023-02-03T14:07:30;-21220.56;;;12.26;39.90
12486;BME280;6307;46.804;11.580;2023-02-03T14:10:18;-21223.53;;;12.36;37.74
12486;BME280;6307;46.804;11.580;2023-02-03T14:22:54;-21220.09;;;12.25;39.24
12486;BME280;6307;46.804;11.580;2023-02-03T14:25:22;-21217.09;;;12.15;39.14
12486;BME280;6307;46.804;11.580;2023-02-03T14:28:02;-21211.72;;;11.97;40.23
12486;BME280;6307;46.804;11.580;2023-02-03T14:36:45;-21213.34;;;12.02;40.42
12486;BME280;6307;46.804;11.580;2023-02-03T14:47:34;-21203.31;;;11.69;41.56
12486;BME280;6307;46.804;11.580;2023-02-03T14:50:29;-21203.16;;;11.68;40.90
12486;BME280;6307;46.804;11.580;2023-02-03T15:00:11;-21213.66;;;12.03;38.82
12486;BME280;6307;46.804;11.580;2023-02-03T15:11:23;-21188.47;;;11.19;45.81
12486;BME280;6307;46.804;11.580;2023-02-03T15:14:33;-21180.38;;;10.92;43.46
12486;BME280;6307;46.804;11.580;2023-02-03T15:17:01;-21179.50;;;10.89;43.78
12486;BME280;6307;46.804;11.580;2023-02-03T15:19:38;-21169.44;;;10.56;46.36
12486;BME280;6307;46.804;11.580;2023-02-03T15:22:25;-21175.28;;;10.75;43.05
12486;BME280;6307;46.804;11.580;2023-02-03T15:25:02;-21173.94;;;10.71;43.87
12486;BME280;6307;46.804;11.580;2023-02-03T15:27:35;-21177.09;;;10.81;46.64
12486;BME280;6307;46.804;11.580;2023-02-03T15:30:16;-21167.19;;;10.48;44.23
12486;BME280;6307;46.804;11.580;2023-02-03T15:32:57;-21172.44;;;10.66;46.54
12486;BME280;6307;46.804;11.580;2023-02-03T15:35:31;-21161.03;;;10.28;46.36